| time (UTC) | temp C | wind direction | speed KPH | gust KPH | rain 1hr cm | rain 24hr cm | rain mn cm | humidity % | barometer mb |
| 20260510043142 | 12 | 1 | 0.0 | 3.2 | 0.00 | 1.12 | 0.08 | 61 | 1011.0 |
| 20260510042242 | 12 | 1 | 0.0 | 1.6 | 0.00 | 1.12 | 0.08 | 61 | 1010.9 |
| 20260510041342 | 12 | 1 | 0.0 | 1.6 | 0.00 | 1.12 | 0.08 | 61 | 1010.8 |
| 20260510040442 | 12 | 1 | 0.0 | 3.2 | 0.00 | 1.12 | 0.08 | 61 | 1010.9 |
| 20260510035542 | 12 | 1 | 0.0 | 1.6 | 0.00 | 1.12 | 0.08 | 61 | 1010.8 |
| 20260510034642 | 12 | 1 | 0.0 | 1.6 | 0.00 | 1.12 | 0.08 | 61 | 1010.9 |
| 20260510033742 | 12 | 1 | 0.0 | 3.2 | 0.00 | 1.12 | 0.08 | 61 | 1010.9 |
| 20260510032842 | 12 | 1 | 1.6 | 3.2 | 0.00 | 1.12 | 0.08 | 61 | 1011.0 |
| 20260510031942 | 12 | 1 | 1.6 | 4.8 | 0.00 | 1.12 | 0.08 | 61 | 1011.0 |
| 20260510031042 | 13 | 1 | 0.0 | 4.8 | 0.00 | 1.12 | 0.08 | 61 | 1011.2 |
| 20260510030142 | 13 | 1 | 1.6 | 3.2 | 0.00 | 1.12 | 0.08 | 60 | 1011.2 |
| 20260510025242 | 13 | 1 | 1.6 | 3.2 | 0.00 | 1.12 | 0.08 | 60 | 1011.2 |
| 20260510024342 | 13 | 1 | 0.0 | 4.8 | 0.00 | 1.12 | 0.08 | 61 | 1011.2 |
| 20260510022542 | 13 | 1 | 0.0 | 3.2 | 0.00 | 1.12 | 0.08 | 60 | 1011.1 |
| 20260510021642 | 13 | 1 | 1.6 | 4.8 | 0.00 | 1.12 | 0.08 | 60 | 1011.0 |
| 20260510015842 | 13 | 1 | 1.6 | 4.8 | 0.00 | 1.12 | 0.08 | 60 | 1011.0 |
| 20260510014942 | 13 | 1 | 0.0 | 4.8 | 0.00 | 1.12 | 0.08 | 60 | 1011.1 |
| 20260510014042 | 13 | 0 | 0.0 | 0.0 | 0.00 | 1.12 | 0.08 | 60 | 1011.1 |
| 20260510013142 | 13 | 0 | 0.0 | 0.0 | 0.00 | 1.12 | 0.08 | 60 | 1011.1 |
| 20260510012242 | 13 | 0 | 0.0 | 0.0 | 0.00 | 1.12 | 0.08 | 60 | 1011.3 |
| 20260510010442 | 13 | 0 | 0.0 | 0.0 | 0.00 | 1.12 | 0.08 | 60 | 1011.5 |
| 20260510005542 | 13 | 0 | 0.0 | 0.0 | 0.00 | 1.12 | 0.08 | 60 | 1011.5 |
| 20260510004642 | 13 | 0 | 0.0 | 0.0 | 0.00 | 1.12 | 0.08 | 60 | 1011.7 |
| 20260510001942 | 13 | 0 | 0.0 | 0.0 | 0.03 | 1.12 | 0.08 | 60 | 1012.1 |
| 20260510001041 | 13 | 0 | 0.0 | 0.0 | 0.05 | 1.12 | 0.08 | 60 | 1012.2 |
| 20260510000142 | 13 | 1 | 0.0 | 1.6 | 0.05 | 1.12 | 0.08 | 60 | 1012.4 |
| 20260509235242 | 13 | 1 | 0.0 | 3.2 | 0.05 | 1.12 | 0.08 | 60 | 1012.6 |
| 20260509234342 | 13 | 1 | 1.6 | 4.8 | 0.05 | 1.12 | 0.08 | 60 | 1012.7 |
| 20260509233441 | 13 | 1 | 3.2 | 4.8 | 0.03 | 1.09 | 0.05 | 60 | 1012.9 |
| 20260509232541 | 13 | 1 | 3.2 | 8.0 | 0.05 | 1.09 | 0.05 | 60 | 1013.0 |
| 20260509231641 | 13 | 1 | 1.6 | 4.8 | 0.05 | 1.09 | 0.05 | 60 | 1013.1 |
| 20260509230741 | 13 | 1 | 0.0 | 3.2 | 0.05 | 1.09 | 0.05 | 60 | 1013.1 |
| 20260509225841 | 13 | 1 | 1.6 | 4.8 | 0.05 | 1.09 | 0.05 | 60 | 1013.1 |
| 20260509224941 | 14 | 1 | 1.6 | 3.2 | 0.05 | 1.09 | 0.05 | 60 | 1013.1 |
| 20260509224041 | 13 | 1 | 3.2 | 6.4 | 0.08 | 1.09 | 0.05 | 60 | 1013.1 |
| 20260509223141 | 14 | 1 | 1.6 | 6.4 | 0.13 | 1.09 | 0.05 | 60 | 1013.1 |
| 20260509222241 | 13 | 1 | 1.6 | 4.8 | 0.13 | 1.07 | 0.03 | 60 | 1013.0 |
| 20260509221341 | 13 | 1 | 0.0 | 4.8 | 0.13 | 1.04 | 0.00 | 61 | 1013.1 |
| 20260509220441 | 13 | 1 | 0.0 | 3.2 | 0.13 | 1.04 | 0.00 | 61 | 1013.1 |
| 20260509215541 | 13 | 1 | 1.6 | 3.2 | 0.15 | 1.04 | 1.04 | 61 | 1013.1 |
| 20260509214641 | 13 | 1 | 1.6 | 4.8 | 0.15 | 1.02 | 1.02 | 61 | 1013.0 |
| 20260509213741 | 13 | 1 | 3.2 | 6.4 | 0.13 | 0.99 | 0.99 | 61 | 1013.1 |
| 20260509212841 | 13 | 1 | 3.2 | 6.4 | 0.08 | 0.97 | 0.97 | 62 | 1013.0 |
| 20260509211941 | 13 | 1 | 4.8 | 8.0 | 0.05 | 0.94 | 0.94 | 62 | 1012.9 |
| 20260509210141 | 14 | 1 | 4.8 | 8.0 | 0.03 | 0.89 | 0.89 | 63 | 1012.8 |
| 20260509204341 | 14 | 1 | 6.4 | 12.9 | 0.00 | 0.89 | 0.89 | 62 | 1012.2 |
| 20260509203441 | 13 | 1 | 9.7 | 14.5 | 0.00 | 0.89 | 0.89 | 61 | 1011.8 |
| 20260509202541 | 13 | 1 | 9.7 | 16.1 | 0.03 | 0.89 | 0.89 | 61 | 1011.6 |
| 20260509201641 | 13 | 1 | 8.0 | 17.7 | 0.03 | 0.89 | 0.89 | 61 | 1011.5 |
| 20260509200741 | 13 | 1 | 8.0 | 14.5 | 0.05 | 0.89 | 0.89 | 61 | 1011.5 |
| 20260509195841 | 13 | 1 | 6.4 | 14.5 | 0.13 | 0.89 | 0.89 | 61 | 1011.5 |
| 20260509194941 | 13 | 1 | 6.4 | 12.9 | 0.20 | 0.89 | 0.89 | 61 | 1011.2 |
| 20260509194041 | 13 | 1 | 6.4 | 11.3 | 0.28 | 0.89 | 0.89 | 61 | 1010.8 |
| 20260509193141 | 13 | 1 | 11.3 | 16.1 | 0.38 | 0.89 | 0.89 | 62 | 1010.6 |
| 20260509192241 | 13 | 1 | 11.3 | 17.7 | 0.43 | 0.86 | 0.86 | 62 | 1010.2 |
| 20260509191341 | 13 | 1 | 9.7 | 17.7 | 0.41 | 0.84 | 0.84 | 63 | 1010.3 |
| 20260509185541 | 14 | 1 | 8.0 | 11.3 | 0.43 | 0.74 | 0.74 | 64 | 1011.2 |
| 20260509184641 | 14 | 1 | 4.8 | 11.3 | 0.41 | 0.64 | 0.64 | 66 | 1011.5 |
| 20260509183741 | 15 | 1 | 3.2 | 8.0 | 0.41 | 0.56 | 0.56 | 68 | 1011.8 |
| 20260509182841 | 15 | 1 | 1.6 | 4.8 | 0.43 | 0.48 | 0.48 | 69 | 1012.0 |
| 20260509181941 | 15 | 1 | 3.2 | 4.8 | 0.43 | 0.43 | 0.43 | 70 | 1012.3 |
| 20260509181041 | 15 | 1 | 4.8 | 6.4 | 0.43 | 0.43 | 0.43 | 71 | 1012.4 |
| 20260509180141 | 15 | 1 | 1.6 | 6.4 | 0.36 | 0.36 | 0.36 | 72 | 1012.5 |
| 20260509175241 | 15 | 1 | 3.2 | 8.0 | 0.30 | 0.30 | 0.30 | 72 | 1012.3 |
| 20260509174340 | 15 | 1 | 4.8 | 9.7 | 0.23 | 0.23 | 0.23 | 73 | 1012.3 |
| 20260509173441 | 16 | 1 | 4.8 | 9.7 | 0.13 | 0.13 | 0.13 | 71 | 1012.2 |
| 20260509171641 | 16 | 1 | 6.4 | 12.9 | 0.03 | 0.03 | 0.03 | 74 | 1012.2 |
| 20260509170740 | 17 | 1 | 6.4 | 12.9 | 0.00 | 0.00 | 0.00 | 76 | 1012.2 |
| 20260509165840 | 17 | 1 | 6.4 | 11.3 | 0.00 | 0.00 | 0.00 | 77 | 1012.0 |
| 20260509164040 | 17 | 1 | 3.2 | 9.7 | 0.00 | 0.00 | 0.00 | 76 | 1011.6 |
| 20260509163141 | 17 | 1 | 4.8 | 9.7 | 0.00 | 0.00 | 0.00 | 76 | 1011.4 |
| 20260509161340 | 17 | 1 | 1.6 | 4.8 | 0.00 | 0.00 | 0.00 | 76 | 1011.0 |
| 20260509160440 | 17 | 1 | 3.2 | 6.4 | 0.00 | 0.00 | 0.00 | 75 | 1010.9 |
| 20260509155540 | 17 | 1 | 3.2 | 6.4 | 0.00 | 0.00 | 0.00 | 75 | 1011.2 |
| 20260509154640 | 17 | 1 | 3.2 | 8.0 | 0.00 | 0.00 | 0.00 | 75 | 1011.4 |
| 20260509153740 | 17 | 1 | 4.8 | 6.4 | 0.00 | 0.00 | 0.00 | 75 | 1011.4 |
| 20260509151940 | 17 | 1 | 6.4 | 11.3 | 0.00 | 0.00 | 0.00 | 74 | 1011.5 |
| 20260509151040 | 17 | 1 | 6.4 | 11.3 | 0.00 | 0.00 | 0.00 | 74 | 1012.0 |
| 20260509145240 | 18 | 1 | 3.2 | 9.7 | 0.00 | 0.00 | 0.00 | 73 | 1012.3 |
| 20260509143440 | 18 | 1 | 3.2 | 8.0 | 0.00 | 0.00 | 0.00 | 74 | 1012.3 |
| 20260509142540 | 18 | 1 | 3.2 | 8.0 | 0.00 | 0.00 | 0.00 | 74 | 1012.4 |
| 20260509141640 | 18 | 1 | 4.8 | 8.0 | 0.00 | 0.00 | 0.00 | 74 | 1012.4 |
| 20260509140740 | 18 | 1 | 4.8 | 8.0 | 0.00 | 0.00 | 0.00 | 73 | 1012.4 |
| 20260509135840 | 18 | 1 | 4.8 | 12.9 | 0.00 | 0.00 | 0.00 | 73 | 1012.4 |
| 20260509134940 | 18 | 1 | 4.8 | 12.9 | 0.00 | 0.00 | 0.00 | 73 | 1012.3 |
| 20260509134040 | 18 | 1 | 6.4 | 14.5 | 0.00 | 0.00 | 0.00 | 73 | 1012.5 |
| 20260509133140 | 18 | 1 | 4.8 | 14.5 | 0.00 | 0.00 | 0.00 | 73 | 1012.3 |
| 20260509132240 | 18 | 1 | 4.8 | 11.3 | 0.00 | 0.00 | 0.00 | 73 | 1012.5 |
| 20260509131340 | 18 | 1 | 4.8 | 9.7 | 0.00 | 0.00 | 0.00 | 72 | 1012.6 |
| 20260509130440 | 18 | 1 | 4.8 | 11.3 | 0.00 | 0.00 | 0.00 | 73 | 1012.7 |
| 20260509125540 | 18 | 1 | 4.8 | 9.7 | 0.00 | 0.00 | 0.00 | 73 | 1012.7 |
| 20260509124640 | 18 | 1 | 6.4 | 16.1 | 0.00 | 0.00 | 0.00 | 73 | 1013.1 |
| 20260509123740 | 18 | 1 | 4.8 | 14.5 | 0.00 | 0.00 | 0.00 | 74 | 1013.4 |
| 20260509122840 | 18 | 1 | 6.4 | 12.9 | 0.00 | 0.00 | 0.00 | 74 | 1013.6 |
| 20260509121940 | 18 | 1 | 6.4 | 12.9 | 0.00 | 0.00 | 0.00 | 74 | 1013.6 |
| 20260509121040 | 18 | 1 | 6.4 | 16.1 | 0.00 | 0.00 | 0.00 | 74 | 1013.6 |
| 20260509120140 | 18 | 1 | 4.8 | 12.9 | 0.00 | 0.00 | 0.00 | 73 | 1013.6 |
| 20260509115240 | 18 | 1 | 4.8 | 11.3 | 0.00 | 0.00 | 0.00 | 72 | 1013.5 |
| 20260509114340 | 19 | 1 | 4.8 | 12.9 | 0.00 | 0.00 | 0.00 | 72 | 1013.5 |
| 20260509113440 | 18 | 1 | 6.4 | 11.3 | 0.00 | 0.00 | 0.00 | 72 | 1013.5 |
| 20260509111640 | 19 | 1 | 4.8 | 16.1 | 0.00 | 0.00 | 0.00 | 72 | 1013.7 |
| 20260509110740 | 19 | 1 | 6.4 | 11.3 | 0.00 | 0.00 | 0.00 | 72 | 1013.8 |
| 20260509105839 | 19 | 1 | 4.8 | 14.5 | 0.00 | 0.00 | 0.00 | 71 | 1013.8 |
| 20260509104939 | 19 | 1 | 6.4 | 12.9 | 0.00 | 0.00 | 0.00 | 72 | 1014.0 |
| 20260509104040 | 19 | 1 | 6.4 | 14.5 | 0.00 | 0.00 | 0.00 | 72 | 1014.1 |
| 20260509103139 | 19 | 1 | 6.4 | 17.7 | 0.00 | 0.00 | 0.00 | 71 | 1014.2 |
| 20260509102240 | 19 | 1 | 6.4 | 14.5 | 0.00 | 0.00 | 0.00 | 71 | 1013.9 |
| 20260509101339 | 19 | 1 | 6.4 | 11.3 | 0.00 | 0.00 | 0.00 | 72 | 1014.0 |
| 20260509100439 | 19 | 1 | 3.2 | 12.9 | 0.00 | 0.00 | 0.00 | 73 | 1013.9 |
| 20260509095539 | 18 | 1 | 4.8 | 11.3 | 0.00 | 0.00 | 0.00 | 74 | 1013.8 |
| 20260509093739 | 18 | 1 | 3.2 | 9.7 | 0.00 | 0.00 | 0.00 | 75 | 1013.8 |
| 20260509092839 | 18 | 1 | 3.2 | 8.0 | 0.00 | 0.00 | 0.00 | 76 | 1013.6 |
| 20260509091040 | 18 | 1 | 3.2 | 6.4 | 0.00 | 0.00 | 0.00 | 76 | 1013.3 |
| 20260509090139 | 17 | 1 | 3.2 | 8.0 | 0.00 | 0.00 | 0.00 | 76 | 1013.4 |
| 20260509085239 | 17 | 1 | 3.2 | 9.7 | 0.00 | 0.00 | 0.00 | 76 | 1013.7 |
| 20260509084339 | 17 | 1 | 3.2 | 8.0 | 0.00 | 0.00 | 0.00 | 76 | 1013.8 |
| 20260509083439 | 17 | 1 | 1.6 | 6.4 | 0.00 | 0.00 | 0.00 | 76 | 1013.9 |
| 20260509082540 | 16 | 1 | 1.6 | 3.2 | 0.00 | 0.00 | 0.00 | 76 | 1013.9 |
| 20260509080739 | 16 | 1 | 1.6 | 4.8 | 0.00 | 0.00 | 0.00 | 73 | 1014.0 |
| 20260509075839 | 16 | 1 | 3.2 | 4.8 | 0.00 | 0.00 | 0.00 | 71 | 1013.9 |
| 20260509074939 | 15 | 1 | 3.2 | 6.4 | 0.00 | 0.00 | 0.00 | 71 | 1014.0 |
| 20260509074040 | 15 | 1 | 3.2 | 4.8 | 0.00 | 0.00 | 0.00 | 68 | 1014.1 |
| 20260509073139 | 15 | 1 | 4.8 | 6.4 | 0.00 | 0.00 | 0.00 | 67 | 1014.1 |
| 20260509071339 | 14 | 1 | 4.8 | 8.0 | 0.00 | 0.00 | 0.00 | 66 | 1014.3 |
| 20260509070439 | 14 | 1 | 4.8 | 9.7 | 0.00 | 0.00 | 0.00 | 65 | 1014.2 |
| 20260509065539 | 14 | 1 | 6.4 | 8.0 | 0.00 | 0.00 | 0.00 | 64 | 1014.2 |
| 20260509064639 | 13 | 1 | 8.0 | 11.3 | 0.00 | 0.00 | 0.00 | 63 | 1014.3 |
| 20260509063739 | 13 | 1 | 8.0 | 12.9 | 0.00 | 0.00 | 0.00 | 63 | 1014.2 |
| 20260509060139 | 13 | 1 | 4.8 | 6.4 | 0.00 | 0.00 | 0.00 | 61 | 1014.5 |
| 20260509055239 | 13 | 1 | 1.6 | 6.4 | 0.00 | 0.00 | 0.00 | 61 | 1014.4 |
| 20260509054339 | 13 | 1 | 0.0 | 4.8 | 0.00 | 0.00 | 0.00 | 61 | 1014.4 |
| 20260509053439 | 12 | 0 | 0.0 | 0.0 | 0.00 | 0.00 | 0.00 | 61 | 1014.2 |
| 20260509052539 | 12 | 0 | 0.0 | 0.0 | 0.00 | 0.00 | 0.00 | 61 | 1014.2 |
| 20260509051639 | 12 | 1 | 1.6 | 3.2 | 0.00 | 0.00 | 0.00 | 61 | 1014.1 |
| 20260509050739 | 12 | 1 | 1.6 | 3.2 | 0.00 | 0.00 | 0.00 | 62 | 1014.1 |
| 20260509045838 | 12 | 1 | 1.6 | 4.8 | 0.00 | 0.00 | 0.00 | 62 | 1014.0 |
| 20260509044938 | 12 | 1 | 0.0 | 4.8 | 0.00 | 0.00 | 0.00 | 62 | 1013.9 |